createdAt,value
2022-09-30T00:02:05.844Z,11.32
2022-09-30T00:04:35.315Z,11.23
2022-09-30T00:07:04.928Z,11.03
2022-09-30T00:09:34.568Z,11.10
2022-09-30T00:12:04.678Z,11.13
2022-09-30T00:14:36.694Z,11.14
2022-09-30T00:17:06.107Z,11.07
2022-09-30T00:19:35.544Z,11.07
2022-09-30T00:22:05.000Z,11.05
2022-09-30T00:24:34.412Z,11.06
2022-09-30T00:27:03.834Z,11.03
2022-09-30T00:29:36.110Z,10.99
2022-09-30T00:32:05.629Z,10.99
2022-09-30T00:34:35.069Z,10.97
2022-09-30T00:37:04.770Z,10.96
2022-09-30T00:39:35.175Z,10.94
2022-09-30T00:42:06.596Z,10.87
2022-09-30T00:44:56.062Z,10.79
2022-09-30T00:47:48.128Z,10.76
2022-09-30T00:50:28.109Z,10.75
2022-09-30T00:52:59.983Z,10.73
2022-09-30T00:55:38.416Z,10.66
2022-09-30T00:58:09.016Z,10.63
2022-09-30T01:00:41.121Z,10.57
2022-09-30T01:03:10.583Z,10.55
2022-09-30T01:05:40.087Z,10.57
2022-09-30T01:08:09.549Z,10.56
2022-09-30T01:10:38.968Z,10.54
2022-09-30T01:13:08.391Z,10.52
2022-09-30T01:15:47.266Z,10.55
2022-09-30T01:18:21.312Z,10.49
2022-09-30T01:21:02.438Z,10.43
2022-09-30T01:23:50.619Z,10.38
2022-09-30T01:26:31.097Z,10.29
2022-09-30T01:29:15.280Z,10.25
2022-09-30T01:31:52.396Z,10.25
2022-09-30T01:34:26.453Z,10.26
2022-09-30T01:37:04.823Z,10.29
2022-09-30T01:39:39.999Z,10.25
2022-09-30T01:42:13.519Z,10.26
2022-09-30T01:44:48.591Z,10.22
2022-09-30T01:47:23.037Z,10.24
2022-09-30T01:49:53.773Z,10.23
2022-09-30T01:52:25.961Z,10.21
2022-09-30T01:54:57.093Z,10.20
2022-09-30T01:57:26.918Z,10.15
2022-09-30T01:59:59.140Z,10.15
2022-09-30T02:02:32.103Z,10.15
2022-09-30T02:05:02.711Z,10.11
2022-09-30T02:07:34.003Z,10.14
2022-09-30T02:10:04.560Z,10.14
2022-09-30T02:12:36.071Z,10.10
2022-09-30T02:15:06.847Z,10.06
2022-09-30T02:17:40.620Z,10.03
2022-09-30T02:20:11.608Z,10.02
2022-09-30T02:22:44.639Z,9.97
2022-09-30T02:25:18.899Z,9.96
2022-09-30T02:27:52.265Z,9.98
2022-09-30T02:30:21.648Z,9.96
2022-09-30T02:32:55.116Z,9.94
2022-09-30T02:35:26.888Z,9.95
2022-09-30T02:37:57.285Z,9.89
2022-09-30T02:40:28.525Z,9.91
2022-09-30T02:42:57.735Z,9.93
2022-09-30T02:45:27.414Z,9.97
2022-09-30T02:48:07.857Z,9.88
2022-09-30T02:50:38.913Z,9.88
2022-09-30T02:53:18.609Z,9.86
2022-09-30T02:55:54.310Z,9.84
2022-09-30T02:58:26.028Z,9.81
2022-09-30T03:00:55.702Z,9.76
2022-09-30T03:03:29.137Z,9.67
2022-09-30T03:05:58.747Z,9.60
2022-09-30T03:08:28.752Z,9.59
2022-09-30T03:10:58.235Z,9.58
2022-09-30T03:13:46.904Z,9.61
2022-09-30T03:16:19.854Z,9.60
2022-09-30T03:19:00.052Z,9.61
2022-09-30T03:21:36.396Z,9.59
2022-09-30T03:24:31.929Z,9.54
2022-09-30T03:27:07.399Z,9.55
2022-09-30T03:29:39.158Z,9.56
2022-09-30T03:32:13.564Z,9.53
2022-09-30T03:34:55.438Z,9.48
2022-09-30T03:37:28.500Z,9.41
2022-09-30T03:39:59.500Z,9.39
2022-09-30T03:42:30.028Z,9.42
2022-09-30T03:45:02.560Z,9.47
2022-09-30T03:47:32.841Z,9.48
2022-09-30T03:50:06.083Z,9.46
2022-09-30T03:52:35.530Z,9.45
2022-09-30T03:55:08.652Z,9.40
2022-09-30T03:57:38.146Z,9.37
2022-09-30T04:00:09.142Z,9.35
2022-09-30T04:02:39.007Z,9.34
2022-09-30T04:05:11.276Z,9.35
2022-09-30T04:07:40.688Z,9.31
2022-09-30T04:10:11.231Z,9.29
2022-09-30T04:12:40.660Z,9.30
2022-09-30T04:15:11.311Z,9.28
2022-09-30T04:17:40.749Z,9.24
2022-09-30T04:20:12.879Z,9.25
2022-09-30T04:22:42.287Z,9.23
2022-09-30T04:25:12.280Z,9.23
2022-09-30T04:27:41.721Z,9.27
2022-09-30T04:30:12.176Z,9.22
2022-09-30T04:32:42.060Z,9.23
2022-09-30T04:35:14.258Z,9.21
2022-09-30T04:37:47.008Z,9.21
2022-09-30T04:40:17.234Z,9.17
2022-09-30T04:42:47.644Z,9.16
2022-09-30T04:45:17.211Z,9.16
2022-09-30T04:47:47.415Z,9.12
2022-09-30T04:50:19.673Z,9.04
2022-09-30T04:52:49.079Z,9.04
2022-09-30T04:55:18.594Z,9.04
2022-09-30T04:57:48.025Z,9.02
2022-09-30T05:00:17.466Z,8.98
2022-09-30T05:02:47.406Z,9.01
2022-09-30T05:05:19.761Z,9.01
2022-09-30T05:07:49.185Z,8.97
2022-09-30T05:10:19.159Z,8.99
2022-09-30T05:12:48.942Z,8.99
2022-09-30T05:15:18.371Z,8.96
2022-09-30T05:17:48.011Z,8.96
2022-09-30T05:20:22.011Z,8.95
2022-09-30T05:22:56.082Z,8.96
2022-09-30T05:25:26.189Z,8.95
2022-09-30T05:27:55.744Z,8.98
2022-09-30T05:30:25.160Z,9.00
2022-09-30T05:32:54.628Z,8.99
2022-09-30T05:35:26.641Z,8.97
2022-09-30T05:37:56.081Z,8.97
2022-09-30T05:40:25.512Z,8.96
2022-09-30T05:42:54.920Z,8.97
2022-09-30T05:45:24.374Z,8.99
2022-09-30T05:47:54.669Z,9.00
2022-09-30T05:50:27.042Z,9.05
2022-09-30T05:52:57.517Z,9.08
2022-09-30T05:55:27.293Z,9.10
2022-09-30T05:57:56.731Z,9.10
2022-09-30T06:00:26.448Z,9.13
2022-09-30T06:02:55.889Z,8.99
2022-09-30T06:05:27.941Z,9.00
2022-09-30T06:07:57.363Z,9.02
2022-09-30T06:10:26.777Z,9.04
2022-09-30T06:12:56.242Z,9.06
2022-09-30T06:15:25.709Z,9.08
2022-09-30T06:17:55.692Z,9.12
2022-09-30T06:20:27.761Z,9.13
2022-09-30T06:22:57.333Z,9.20
2022-09-30T06:25:27.942Z,9.24
2022-09-30T06:27:57.401Z,9.30
2022-09-30T06:30:29.464Z,9.36
2022-09-30T06:33:01.317Z,9.43
2022-09-30T06:35:33.322Z,9.47
2022-09-30T06:38:02.754Z,9.52
2022-09-30T06:40:32.192Z,9.59
2022-09-30T06:43:02.165Z,9.68
2022-09-30T06:45:33.416Z,9.77
2022-09-30T06:48:03.379Z,9.67
2022-09-30T06:50:35.548Z,9.40
2022-09-30T06:53:06.243Z,9.31
2022-09-30T06:55:36.606Z,9.34
2022-09-30T06:58:06.201Z,9.01
2022-09-30T07:00:36.656Z,9.12
2022-09-30T07:03:09.795Z,9.29
2022-09-30T07:05:41.805Z,9.50
2022-09-30T07:08:11.217Z,9.71
2022-09-30T07:10:40.893Z,9.86
2022-09-30T07:13:10.836Z,10.06
2022-09-30T07:15:40.348Z,10.15
2022-09-30T07:18:11.874Z,10.36
2022-09-30T07:20:43.928Z,10.57
2022-09-30T07:23:13.350Z,10.83
2022-09-30T07:25:42.790Z,11.23
2022-09-30T07:28:14.110Z,11.53
2022-09-30T07:30:47.228Z,11.74
2022-09-30T07:33:17.097Z,11.94
2022-09-30T07:35:55.672Z,12.17
2022-09-30T07:38:25.847Z,12.27
2022-09-30T07:40:57.068Z,12.34
2022-09-30T07:43:28.018Z,12.61
2022-09-30T07:45:58.099Z,12.87
2022-09-30T07:48:40.050Z,13.01
2022-09-30T07:51:12.985Z,13.22
2022-09-30T07:53:42.892Z,13.32
2022-09-30T07:56:12.498Z,13.47
2022-09-30T07:58:42.159Z,13.65
2022-09-30T08:01:11.687Z,13.69
2022-09-30T08:03:41.998Z,13.97
2022-09-30T08:06:14.773Z,14.23
2022-09-30T08:08:44.270Z,14.29
2022-09-30T08:11:14.029Z,14.56
2022-09-30T08:13:46.241Z,14.71
2022-09-30T08:16:15.706Z,14.88
2022-09-30T08:18:45.141Z,15.02
2022-09-30T08:21:17.178Z,15.08
2022-09-30T08:23:46.602Z,15.26
2022-09-30T08:26:16.782Z,15.22
2022-09-30T08:28:47.127Z,15.36
2022-09-30T08:31:17.758Z,15.21
2022-09-30T08:33:47.251Z,14.99
2022-09-30T08:36:20.188Z,15.05
2022-09-30T08:38:49.620Z,14.46
2022-09-30T08:41:26.019Z,14.42
2022-09-30T08:44:01.076Z,14.69
2022-09-30T08:46:35.508Z,15.26
2022-09-30T08:49:21.039Z,15.41
2022-09-30T08:51:53.188Z,14.71
2022-09-30T08:54:25.515Z,14.43
2022-09-30T08:56:54.952Z,15.16
2022-09-30T08:59:30.927Z,15.67
2022-09-30T09:02:04.162Z,15.91
2022-09-30T09:04:33.712Z,16.19
2022-09-30T09:07:09.805Z,16.28
2022-09-30T09:09:46.130Z,16.47
2022-09-30T09:12:27.544Z,16.80
2022-09-30T09:15:04.415Z,16.99
2022-09-30T09:17:54.177Z,17.03
2022-09-30T09:20:34.738Z,17.05
2022-09-30T09:23:06.790Z,17.09
2022-09-30T09:25:36.236Z,17.22
2022-09-30T09:28:06.559Z,17.45
2022-09-30T09:30:39.370Z,17.54
2022-09-30T09:33:20.350Z,17.55
2022-09-30T09:35:51.285Z,17.63
2022-09-30T09:38:31.814Z,17.81
2022-09-30T09:41:10.960Z,17.62
2022-09-30T09:43:51.428Z,17.46
2022-09-30T09:46:24.768Z,17.48
2022-09-30T09:49:13.776Z,17.59
2022-09-30T09:51:47.202Z,17.85
2022-09-30T09:54:21.205Z,17.56
2022-09-30T09:56:53.021Z,17.52
2022-09-30T09:59:23.106Z,17.18
2022-09-30T10:01:54.246Z,17.41
2022-09-30T10:04:25.338Z,17.55
2022-09-30T10:06:56.064Z,17.37
2022-09-30T10:09:38.023Z,17.39
2022-09-30T10:12:31.174Z,17.77
2022-09-30T10:15:03.232Z,18.03
2022-09-30T10:17:33.371Z,18.28
2022-09-30T10:20:06.309Z,18.35
2022-09-30T10:22:36.241Z,18.55
2022-09-30T10:25:21.443Z,18.61
2022-09-30T10:27:53.252Z,18.21
2022-09-30T10:30:37.285Z,18.01
2022-09-30T10:33:06.831Z,18.15
2022-09-30T10:35:36.250Z,18.11
2022-09-30T10:38:06.160Z,18.57
2022-09-30T10:40:38.182Z,18.59
2022-09-30T10:43:08.130Z,18.32
2022-09-30T10:45:41.289Z,18.54
2022-09-30T10:48:16.165Z,18.83
2022-09-30T10:50:47.149Z,19.20
2022-09-30T10:53:18.550Z,18.85
2022-09-30T10:55:50.720Z,18.64
2022-09-30T10:58:25.998Z,18.25
2022-09-30T11:00:57.749Z,18.24
2022-09-30T11:03:29.757Z,18.91
2022-09-30T11:05:59.307Z,19.18
2022-09-30T11:08:31.865Z,19.52
2022-09-30T11:11:10.241Z,19.41
2022-09-30T11:13:41.026Z,19.23
2022-09-30T11:16:15.208Z,19.59
2022-09-30T11:18:46.316Z,20.06
2022-09-30T11:21:15.787Z,20.31
2022-09-30T11:23:47.258Z,19.78
2022-09-30T11:26:23.453Z,19.03
2022-09-30T11:28:59.098Z,19.15
2022-09-30T11:31:33.036Z,19.80
2022-09-30T11:34:21.775Z,20.00
2022-09-30T11:36:54.072Z,19.86
2022-09-30T11:40:00.352Z,20.27
2022-09-30T11:42:35.893Z,20.48
2022-09-30T11:45:09.082Z,20.27
2022-09-30T11:47:53.598Z,20.44
2022-09-30T11:50:35.258Z,20.68
2022-09-30T11:53:14.399Z,20.72
2022-09-30T11:55:49.529Z,20.36
2022-09-30T11:58:40.533Z,20.69
2022-09-30T12:01:17.837Z,20.70
2022-09-30T12:03:49.106Z,19.86
2022-09-30T12:06:21.172Z,20.14
2022-09-30T12:08:52.264Z,20.78
2022-09-30T12:11:21.863Z,21.20
2022-09-30T12:13:54.920Z,20.64
2022-09-30T12:16:26.868Z,20.66
2022-09-30T12:18:58.138Z,20.98
2022-09-30T12:21:28.210Z,20.68
2022-09-30T12:23:59.533Z,20.01
2022-09-30T12:26:29.266Z,19.21
2022-09-30T12:29:15.882Z,19.79
2022-09-30T12:31:58.892Z,19.99
2022-09-30T12:34:36.803Z,20.18
2022-09-30T12:37:17.519Z,20.44
2022-09-30T12:39:57.773Z,20.70
2022-09-30T12:42:35.763Z,20.35
2022-09-30T12:45:30.286Z,19.81
2022-09-30T12:48:00.186Z,20.27
2022-09-30T12:50:30.920Z,19.88
2022-09-30T12:53:01.594Z,20.15
2022-09-30T12:55:32.801Z,20.34
2022-09-30T12:58:02.973Z,20.44
2022-09-30T13:00:37.715Z,20.82
2022-09-30T13:03:08.702Z,20.51
2022-09-30T13:05:50.225Z,20.12
2022-09-30T13:08:45.404Z,19.95
2022-09-30T13:11:34.408Z,19.39
2022-09-30T13:14:13.508Z,20.13
2022-09-30T13:17:05.370Z,20.35
2022-09-30T13:19:36.489Z,19.81
2022-09-30T13:22:36.227Z,19.00
2022-09-30T13:25:06.772Z,19.17
2022-09-30T13:27:36.605Z,19.87
2022-09-30T13:30:08.920Z,19.62
2022-09-30T13:32:42.308Z,19.87
2022-09-30T13:35:34.012Z,19.35
2022-09-30T13:38:20.151Z,19.06
2022-09-30T13:41:01.962Z,19.29
2022-09-30T13:43:34.461Z,19.43
2022-09-30T13:46:09.087Z,18.76
2022-09-30T13:48:42.152Z,18.89
2022-09-30T13:51:14.848Z,19.06
2022-09-30T13:53:46.344Z,19.45
2022-09-30T13:56:19.346Z,19.75
2022-09-30T13:59:22.322Z,20.03
2022-09-30T14:02:10.406Z,20.24
2022-09-30T14:05:19.138Z,19.61
2022-09-30T14:07:54.267Z,19.94
2022-09-30T14:10:40.961Z,19.96
2022-09-30T14:13:27.754Z,19.82
2022-09-30T14:16:06.751Z,20.11
2022-09-30T14:18:45.178Z,20.19
2022-09-30T14:21:25.829Z,19.78
2022-09-30T14:24:00.286Z,19.50
2022-09-30T14:26:41.981Z,19.56
2022-09-30T14:29:14.121Z,19.70
2022-09-30T14:31:46.874Z,19.67
2022-09-30T14:34:17.103Z,19.96
2022-09-30T14:36:49.588Z,20.25
2022-09-30T14:39:20.019Z,20.55
2022-09-30T14:41:52.099Z,20.11
2022-09-30T14:44:23.027Z,20.13
2022-09-30T14:46:55.065Z,19.96
2022-09-30T14:49:29.968Z,20.01
2022-09-30T14:52:03.472Z,19.91
2022-09-30T14:54:33.794Z,20.03
2022-09-30T14:57:04.487Z,20.15
2022-09-30T14:59:35.256Z,20.33
2022-09-30T15:02:05.679Z,20.10
2022-09-30T15:04:36.401Z,19.71
2022-09-30T15:07:12.177Z,19.59
2022-09-30T15:09:43.513Z,19.15
2022-09-30T15:12:14.249Z,19.50
2022-09-30T15:14:48.942Z,19.59
2022-09-30T15:17:21.421Z,19.57
2022-09-30T15:19:50.979Z,19.86
2022-09-30T15:22:23.064Z,19.89
2022-09-30T15:24:52.656Z,19.39
2022-09-30T15:27:23.528Z,19.27
2022-09-30T15:29:59.856Z,19.54
2022-09-30T15:32:29.730Z,19.75
2022-09-30T15:35:00.071Z,19.78
2022-09-30T15:37:33.841Z,19.74
2022-09-30T15:40:16.632Z,19.75
2022-09-30T15:42:49.351Z,19.81
2022-09-30T15:45:34.994Z,19.88
2022-09-30T15:48:07.055Z,19.22
2022-09-30T15:50:41.187Z,19.31
2022-09-30T15:53:25.184Z,19.47
2022-09-30T15:55:55.719Z,18.99
2022-09-30T15:58:37.814Z,19.19
2022-09-30T16:01:16.617Z,18.98
2022-09-30T16:03:54.318Z,18.92
2022-09-30T16:06:28.920Z,18.76
2022-09-30T16:09:02.268Z,19.11
2022-09-30T16:11:36.630Z,19.27
2022-09-30T16:14:07.336Z,19.35
2022-09-30T16:16:37.785Z,19.24
2022-09-30T16:19:07.711Z,19.29
2022-09-30T16:21:50.784Z,19.33
2022-09-30T16:24:48.452Z,19.34
2022-09-30T16:27:30.264Z,19.29
2022-09-30T16:30:00.577Z,19.24
2022-09-30T16:32:30.925Z,19.27
2022-09-30T16:35:00.465Z,19.13
2022-09-30T16:37:29.904Z,19.07
2022-09-30T16:40:04.616Z,19.04
2022-09-30T16:42:34.404Z,19.08
2022-09-30T16:45:04.477Z,19.09
2022-09-30T16:47:33.944Z,19.07
2022-09-30T16:50:03.393Z,19.02
2022-09-30T16:52:32.874Z,18.96
2022-09-30T16:55:04.967Z,18.88
2022-09-30T16:57:34.482Z,18.83
2022-09-30T17:00:04.433Z,18.78
2022-09-30T17:02:34.020Z,18.70
2022-09-30T17:05:03.508Z,18.66
2022-09-30T17:07:33.527Z,18.62
2022-09-30T17:10:05.630Z,18.54
2022-09-30T17:12:35.046Z,18.47
2022-09-30T17:15:04.495Z,18.38
2022-09-30T17:17:33.930Z,18.34
2022-09-30T17:20:03.876Z,18.23
2022-09-30T17:22:33.304Z,18.17
2022-09-30T17:25:05.346Z,18.13
2022-09-30T17:27:34.757Z,18.07
2022-09-30T17:30:04.265Z,18.01
2022-09-30T17:32:33.711Z,17.96
2022-09-30T17:35:03.179Z,17.89
2022-09-30T17:37:32.883Z,17.86
2022-09-30T17:40:25.786Z,17.81
2022-09-30T17:43:07.596Z,17.76
2022-09-30T17:45:37.076Z,17.72
2022-09-30T17:48:07.878Z,17.65
2022-09-30T17:50:37.583Z,17.63
2022-09-30T17:53:07.742Z,17.59
2022-09-30T17:55:39.816Z,17.52
2022-09-30T17:58:09.689Z,17.48
2022-09-30T18:00:39.118Z,17.45
2022-09-30T18:03:09.322Z,17.45
2022-09-30T18:05:38.952Z,17.42
2022-09-30T18:08:08.660Z,17.38
2022-09-30T18:10:41.385Z,17.32
2022-09-30T18:13:11.556Z,17.27
2022-09-30T18:15:41.642Z,17.26
2022-09-30T18:18:11.054Z,17.21
2022-09-30T18:20:44.905Z,17.16
2022-09-30T18:23:14.373Z,17.11
2022-09-30T18:25:46.458Z,17.09
2022-09-30T18:28:16.037Z,16.82
2022-09-30T18:30:46.665Z,16.75
2022-09-30T18:33:17.440Z,16.73
2022-09-30T18:35:47.511Z,16.68
2022-09-30T18:38:17.103Z,16.58
2022-09-30T18:40:49.985Z,16.48
2022-09-30T18:43:20.765Z,16.38
2022-09-30T18:45:56.243Z,16.31
2022-09-30T18:48:26.224Z,16.24
2022-09-30T18:50:55.639Z,16.21
2022-09-30T18:53:25.267Z,16.12
2022-09-30T18:55:57.293Z,16.09
2022-09-30T18:58:27.364Z,16.00
2022-09-30T19:00:56.849Z,15.96
2022-09-30T19:03:26.997Z,15.89
2022-09-30T19:05:56.434Z,15.84
2022-09-30T19:08:26.833Z,15.83
2022-09-30T19:10:59.169Z,15.74
2022-09-30T19:13:29.840Z,15.69
2022-09-30T19:16:05.689Z,15.68
2022-09-30T19:18:35.125Z,15.53
2022-09-30T19:21:10.031Z,15.48
2022-09-30T19:23:39.649Z,15.44
2022-09-30T19:26:14.368Z,15.39
2022-09-30T19:28:43.813Z,15.32
2022-09-30T19:31:15.294Z,15.29
2022-09-30T19:33:54.512Z,15.25
2022-09-30T19:36:26.881Z,15.15
2022-09-30T19:39:10.097Z,15.10
2022-09-30T19:41:46.268Z,15.05
2022-09-30T19:44:19.307Z,14.98
2022-09-30T19:46:50.934Z,14.97
2022-09-30T19:49:21.670Z,14.95
2022-09-30T19:51:52.583Z,14.95
2022-09-30T19:54:36.133Z,14.90
2022-09-30T19:57:12.029Z,14.85
2022-09-30T19:59:41.441Z,14.82
2022-09-30T20:02:12.344Z,14.81
2022-09-30T20:04:43.765Z,14.75
2022-09-30T20:07:16.214Z,14.74
2022-09-30T20:09:46.552Z,14.75
2022-09-30T20:12:18.572Z,14.69
2022-09-30T20:15:00.473Z,14.64
2022-09-30T20:17:30.909Z,14.50
2022-09-30T20:20:12.854Z,14.46
2022-09-30T20:22:42.308Z,14.38
2022-09-30T20:25:12.831Z,14.37
2022-09-30T20:27:51.063Z,14.27
2022-09-30T20:30:21.490Z,14.21
2022-09-30T20:32:50.995Z,14.19
2022-09-30T20:35:21.296Z,14.21
2022-09-30T20:37:51.705Z,14.21
2022-09-30T20:40:21.110Z,14.23
2022-09-30T20:42:54.023Z,14.21
2022-09-30T20:45:26.525Z,14.16
2022-09-30T20:47:56.884Z,14.09
2022-09-30T20:50:37.525Z,14.06
2022-09-30T20:53:11.881Z,14.00
2022-09-30T20:55:43.420Z,13.98
2022-09-30T20:58:15.432Z,13.97
2022-09-30T21:00:45.130Z,13.94
2022-09-30T21:03:15.502Z,13.87
2022-09-30T21:05:44.908Z,13.85
2022-09-30T21:08:14.329Z,13.81
2022-09-30T21:10:43.743Z,13.76
2022-09-30T21:13:16.004Z,13.72
2022-09-30T21:15:45.421Z,13.72
2022-09-30T21:18:14.845Z,13.71
2022-09-30T21:20:44.380Z,13.71
2022-09-30T21:23:17.252Z,13.73
2022-09-30T21:25:49.061Z,13.74
2022-09-30T21:28:22.357Z,13.68
2022-09-30T21:30:51.963Z,13.66
2022-09-30T21:33:22.125Z,13.65
2022-09-30T21:35:52.284Z,13.64
2022-09-30T21:38:25.119Z,13.60
2022-09-30T21:41:00.470Z,13.50
2022-09-30T21:43:34.127Z,13.46
2022-09-30T21:46:04.578Z,13.42
2022-09-30T21:48:35.223Z,13.40
2022-09-30T21:51:04.823Z,13.38
2022-09-30T21:53:34.269Z,13.34
2022-09-30T21:56:04.451Z,13.36
2022-09-30T21:58:36.874Z,13.40
2022-09-30T22:01:07.261Z,13.36
2022-09-30T22:03:38.825Z,13.33
2022-09-30T22:06:09.600Z,13.24
2022-09-30T22:08:40.787Z,13.20
2022-09-30T22:11:11.190Z,13.18
2022-09-30T22:13:45.098Z,13.17
2022-09-30T22:16:19.798Z,13.17
2022-09-30T22:18:49.355Z,13.14
2022-09-30T22:21:18.787Z,13.15
2022-09-30T22:23:49.038Z,13.13
2022-09-30T22:26:19.611Z,13.10
2022-09-30T22:28:55.591Z,13.10
2022-09-30T22:31:26.037Z,13.07
2022-09-30T22:34:09.101Z,13.07
2022-09-30T22:36:51.063Z,13.04
2022-09-30T22:39:20.811Z,12.96
2022-09-30T22:41:50.316Z,12.95
2022-09-30T22:44:23.744Z,12.88
2022-09-30T22:46:53.471Z,12.83
2022-09-30T22:49:23.173Z,12.84
2022-09-30T22:51:52.782Z,12.79
2022-09-30T22:54:22.319Z,12.74
2022-09-30T22:56:51.878Z,12.68
2022-09-30T22:59:24.123Z,12.64
2022-09-30T23:01:53.583Z,12.61
2022-09-30T23:04:23.500Z,12.53
2022-09-30T23:06:53.782Z,12.46
2022-09-30T23:09:23.389Z,12.41
2022-09-30T23:11:54.485Z,12.35
2022-09-30T23:14:26.660Z,12.24
2022-09-30T23:16:56.141Z,12.36
2022-09-30T23:19:25.668Z,12.40
2022-09-30T23:21:55.112Z,12.46
2022-09-30T23:24:24.579Z,12.43
2022-09-30T23:26:54.059Z,12.44
2022-09-30T23:29:26.137Z,12.43
2022-09-30T23:31:55.614Z,12.47
2022-09-30T23:34:25.136Z,12.47
2022-09-30T23:36:54.624Z,12.49
2022-09-30T23:39:24.109Z,12.42
2022-09-30T23:41:53.560Z,12.16
2022-09-30T23:44:24.536Z,12.18
2022-09-30T23:47:09.085Z,12.19
2022-09-30T23:49:38.965Z,12.25
2022-09-30T23:52:12.753Z,12.27
2022-09-30T23:54:42.746Z,12.17
2022-09-30T23:57:12.356Z,12.05
2022-09-30T23:59:41.915Z,12.01
